Hartland, Canada
Current Conditions -  °F | °C
As of 5:53 AM on Sunday 23 Nov 2014 (Local Time) from KHUL Reporting Station
Overcast Overcast  
Wind Chill: 27°   Ceiling: 2700
Heat Index: 32°   Visibility: 10mi
Dew Point: 22°   Wind: 5mph
Humidity: 66%   Direction: 200°SSW
Pressure: 29.87"   Gusts: NA
Location:  46.3°N, 67.52°W
Report Text: KHUL 230953Z AUTO 20004KT 10SM OVC027 00/M06 A2987 RMK AO2 SLP122 T00001056
Loading
Personal Weather Stations






























Interactive Weather Map New forecast layout! Learn more

10-Day Weather Forecast

Advertisements
Track Severe Weather on mobile